createdAt,value
2022-07-31T00:02:22.863Z,48.55
2022-07-31T00:07:25.742Z,48.38
2022-07-31T00:12:29.962Z,48.36
2022-07-31T00:17:32.742Z,48.74
2022-07-31T00:22:36.532Z,49.24
2022-07-31T00:27:41.142Z,50.03
2022-07-31T00:32:44.057Z,50.24
2022-07-31T00:37:46.876Z,50.28
2022-07-31T00:42:51.163Z,50.12
2022-07-31T00:47:55.735Z,50.58
2022-07-31T00:52:58.619Z,50.17
2022-07-31T00:58:02.825Z,50.05
2022-07-31T01:03:05.754Z,50.35
2022-07-31T01:08:08.806Z,50.87
2022-07-31T01:13:21.146Z,51.03
2022-07-31T01:18:26.826Z,51.16
2022-07-31T01:23:50.964Z,50.89
2022-07-31T01:29:09.973Z,51.06
2022-07-31T01:34:20.751Z,52.01
2022-07-31T01:39:24.012Z,53.23
2022-07-31T01:44:29.991Z,53.77
2022-07-31T01:49:34.514Z,53.66
2022-07-31T01:54:38.925Z,53.84
2022-07-31T01:59:46.338Z,54.00
2022-07-31T02:04:50.649Z,54.25
2022-07-31T02:09:58.827Z,54.37
2022-07-31T02:15:05.673Z,53.72
2022-07-31T02:20:12.661Z,54.39
2022-07-31T02:25:15.803Z,54.36
2022-07-31T02:30:20.575Z,54.87
2022-07-31T02:35:23.973Z,53.58
2022-07-31T02:40:27.146Z,54.12
2022-07-31T02:45:31.688Z,54.06
2022-07-31T02:50:34.686Z,55.76
2022-07-31T02:55:39.041Z,56.32
2022-07-31T03:00:43.540Z,57.01
2022-07-31T03:05:46.441Z,57.79
2022-07-31T03:10:49.293Z,57.64
2022-07-31T03:15:53.958Z,57.33
2022-07-31T03:20:57.858Z,57.24
2022-07-31T03:26:01.317Z,57.26
2022-07-31T03:31:07.857Z,57.06
2022-07-31T03:36:10.726Z,57.42
2022-07-31T03:41:13.537Z,57.31
2022-07-31T03:46:20.996Z,57.03
2022-07-31T03:51:23.925Z,57.23
2022-07-31T03:56:27.132Z,57.43
2022-07-31T04:01:57.331Z,57.27
2022-07-31T04:06:54.579Z,57.76
2022-07-31T04:11:57.396Z,57.52
2022-07-31T04:17:01.587Z,57.08
2022-07-31T04:22:05.517Z,57.51
2022-07-31T04:27:12.712Z,58.31
2022-07-31T04:32:17.198Z,58.47
2022-07-31T04:37:20.043Z,58.60
2022-07-31T04:42:22.908Z,58.71
2022-07-31T04:47:27.088Z,58.88
2022-07-31T04:52:29.918Z,59.16
2022-07-31T04:57:32.736Z,58.93
2022-07-31T05:02:37.052Z,58.73
2022-07-31T05:07:40.004Z,57.11
2022-07-31T05:12:42.828Z,57.58
2022-07-31T05:17:46.989Z,56.45
2022-07-31T05:22:49.831Z,57.29
2022-07-31T05:27:52.656Z,56.82
2022-07-31T05:32:56.842Z,57.79
2022-07-31T05:37:59.666Z,57.94
2022-07-31T05:43:02.501Z,57.51
2022-07-31T05:48:07.176Z,57.28
2022-07-31T05:53:11.995Z,55.66
2022-07-31T05:58:16.949Z,55.77
2022-07-31T06:03:27.842Z,54.15
2022-07-31T06:08:30.833Z,55.74
2022-07-31T06:13:33.690Z,55.79
2022-07-31T06:18:37.859Z,54.33
2022-07-31T06:23:40.684Z,54.54
2022-07-31T06:28:47.624Z,53.18
2022-07-31T06:33:53.239Z,52.45
2022-07-31T06:38:56.078Z,51.74
2022-07-31T06:43:58.936Z,50.79
2022-07-31T06:49:08.283Z,51.27
2022-07-31T06:54:12.692Z,51.21
2022-07-31T06:59:18.017Z,51.61
2022-07-31T07:04:57.403Z,50.44
2022-07-31T07:10:02.616Z,49.60
2022-07-31T07:15:06.344Z,50.32
2022-07-31T07:20:11.616Z,50.40
2022-07-31T07:25:14.442Z,50.08
2022-07-31T07:30:17.298Z,49.77
2022-07-31T07:35:21.977Z,49.70
2022-07-31T07:40:25.442Z,49.12
2022-07-31T07:45:28.295Z,49.28
2022-07-31T07:50:32.612Z,48.50
2022-07-31T07:55:37.432Z,48.16
2022-07-31T08:00:41.016Z,48.07
2022-07-31T08:05:45.376Z,48.04
2022-07-31T08:10:48.218Z,47.18
2022-07-31T08:15:51.085Z,47.01
2022-07-31T08:20:55.314Z,46.39
2022-07-31T08:25:58.142Z,45.74
2022-07-31T08:31:01.836Z,45.81
2022-07-31T08:36:09.062Z,45.50
2022-07-31T08:41:14.884Z,45.42
2022-07-31T08:46:18.516Z,44.67
2022-07-31T08:51:24.822Z,44.46
2022-07-31T08:56:28.347Z,43.93
2022-07-31T09:01:31.390Z,43.44
2022-07-31T09:06:35.714Z,42.91
2022-07-31T09:11:48.210Z,42.21
2022-07-31T09:16:51.665Z,41.76
2022-07-31T09:21:55.876Z,41.27
2022-07-31T09:27:07.148Z,40.69
2022-07-31T09:32:11.949Z,40.23
2022-07-31T09:37:17.879Z,39.51
2022-07-31T09:42:21.943Z,38.65
2022-07-31T09:47:26.978Z,38.71
2022-07-31T09:52:32.446Z,38.58
2022-07-31T09:57:37.626Z,37.90
2022-07-31T10:02:44.827Z,37.45
2022-07-31T10:07:49.993Z,37.37
2022-07-31T10:12:55.261Z,36.38
2022-07-31T10:17:59.225Z,35.51
2022-07-31T10:23:10.421Z,34.77
2022-07-31T10:28:14.107Z,34.58
2022-07-31T10:33:42.015Z,35.17
2022-07-31T10:38:49.050Z,34.56
2022-07-31T10:43:55.762Z,33.90
2022-07-31T10:48:59.095Z,33.55
2022-07-31T10:54:06.682Z,33.31
2022-07-31T10:59:10.958Z,32.76
2022-07-31T11:04:15.061Z,32.28
2022-07-31T11:09:25.255Z,32.04
2022-07-31T11:14:35.473Z,32.20
2022-07-31T11:19:41.354Z,32.05
2022-07-31T11:24:54.755Z,31.05
2022-07-31T11:30:07.950Z,30.47
2022-07-31T11:35:14.235Z,30.00
2022-07-31T11:40:18.694Z,31.19
2022-07-31T11:45:25.249Z,30.85
2022-07-31T11:50:41.103Z,30.31
2022-07-31T11:55:50.990Z,29.53
2022-07-31T12:00:55.786Z,28.74
2022-07-31T12:05:58.662Z,28.53
2022-07-31T12:11:04.479Z,28.57
2022-07-31T12:16:09.356Z,28.80
2022-07-31T12:21:12.269Z,28.94
2022-07-31T12:26:23.900Z,28.96
2022-07-31T12:31:26.781Z,29.25
2022-07-31T12:36:29.665Z,28.20
2022-07-31T12:41:43.453Z,28.76
2022-07-31T12:46:46.301Z,28.11
2022-07-31T12:51:49.226Z,28.15
2022-07-31T12:56:53.458Z,27.88
2022-07-31T13:01:56.743Z,27.74
2022-07-31T13:07:00.163Z,28.26
2022-07-31T13:12:05.234Z,28.14
2022-07-31T13:17:08.476Z,27.77
2022-07-31T13:22:11.326Z,27.58
2022-07-31T13:27:16.326Z,27.23
2022-07-31T13:32:19.141Z,26.50
2022-07-31T13:37:21.969Z,26.48
2022-07-31T13:42:29.305Z,27.10
2022-07-31T13:47:51.628Z,26.22
2022-07-31T13:52:55.322Z,26.45
2022-07-31T13:57:59.724Z,26.12
2022-07-31T14:03:04.553Z,25.87
2022-07-31T14:08:33.075Z,26.42
2022-07-31T14:13:31.598Z,26.86
2022-07-31T14:18:34.462Z,25.56
2022-07-31T14:23:40.716Z,24.90
2022-07-31T14:28:45.214Z,24.93
2022-07-31T14:33:48.213Z,24.70
2022-07-31T14:38:51.042Z,24.98
2022-07-31T14:43:55.241Z,24.94
2022-07-31T14:48:58.532Z,24.58
2022-07-31T14:54:01.507Z,24.58
2022-07-31T14:59:05.704Z,24.30
2022-07-31T15:04:08.550Z,24.00
2022-07-31T15:09:11.403Z,24.53
2022-07-31T15:14:16.072Z,23.96
2022-07-31T15:19:18.865Z,22.01
2022-07-31T15:24:21.721Z,21.71
2022-07-31T15:29:25.947Z,19.47
2022-07-31T15:34:48.818Z,19.48
2022-07-31T15:40:01.425Z,21.03
2022-07-31T15:45:09.838Z,21.61
2022-07-31T15:50:14.888Z,19.95
2022-07-31T15:55:18.934Z,19.81
2022-07-31T16:00:23.534Z,19.67
2022-07-31T16:05:36.656Z,17.75
2022-07-31T16:10:40.079Z,17.78
2022-07-31T16:15:44.484Z,19.55
2022-07-31T16:20:47.637Z,19.72
2022-07-31T16:25:50.479Z,18.98
2022-07-31T16:30:54.678Z,18.85
2022-07-31T16:35:57.770Z,18.09
2022-07-31T16:41:00.592Z,17.44
2022-07-31T16:46:04.785Z,17.04
2022-07-31T16:51:08.349Z,16.93
2022-07-31T16:56:11.279Z,16.56
2022-07-31T17:01:54.021Z,16.28
2022-07-31T17:06:38.371Z,16.38
2022-07-31T17:11:41.350Z,16.48
2022-07-31T17:16:49.960Z,16.70
2022-07-31T17:21:53.149Z,16.89
2022-07-31T17:26:56.388Z,16.95
2022-07-31T17:32:00.622Z,17.12
2022-07-31T17:37:04.210Z,17.28
2022-07-31T17:47:07.668Z,17.63
2022-07-31T17:47:31.938Z,17.96
2022-07-31T17:52:34.789Z,18.32
2022-07-31T17:57:37.767Z,18.84
2022-07-31T18:02:42.044Z,19.69
2022-07-31T18:07:44.981Z,20.90
2022-07-31T18:12:57.573Z,22.36
2022-07-31T18:18:02.448Z,23.39
2022-07-31T18:23:05.353Z,24.39
2022-07-31T18:28:13.025Z,25.54
2022-07-31T18:33:17.548Z,25.90
2022-07-31T18:38:20.397Z,27.06
2022-07-31T18:43:23.274Z,27.06
2022-07-31T18:48:27.492Z,27.06
2022-07-31T18:53:30.346Z,27.77
2022-07-31T18:58:33.217Z,28.15
2022-07-31T19:03:37.615Z,28.69
2022-07-31T19:08:40.543Z,29.46
2022-07-31T19:13:43.381Z,29.74
2022-07-31T19:18:50.372Z,30.57
2022-07-31T19:23:53.547Z,31.02
2022-07-31T19:28:56.640Z,31.85
2022-07-31T19:34:00.916Z,32.20
2022-07-31T19:39:03.851Z,32.54
2022-07-31T19:44:08.260Z,32.85
2022-07-31T19:49:12.508Z,33.25
2022-07-31T19:54:15.368Z,33.79
2022-07-31T19:59:18.246Z,33.92
2022-07-31T20:04:22.436Z,34.17
2022-07-31T20:09:25.359Z,34.77
2022-07-31T20:14:28.166Z,34.87
2022-07-31T20:19:32.350Z,35.10
2022-07-31T20:24:35.177Z,35.19
2022-07-31T20:29:38.024Z,35.09
2022-07-31T20:34:42.224Z,35.20
2022-07-31T20:39:45.045Z,35.26
2022-07-31T20:44:47.849Z,35.19
2022-07-31T20:49:52.224Z,35.36
2022-07-31T20:54:55.085Z,35.26
2022-07-31T20:59:57.957Z,35.36
2022-07-31T21:05:02.366Z,35.52
2022-07-31T21:10:06.518Z,35.39
2022-07-31T21:15:28.442Z,35.63
2022-07-31T21:20:51.384Z,35.70
2022-07-31T21:25:58.479Z,36.06
2022-07-31T21:31:01.890Z,35.87
2022-07-31T21:36:07.003Z,35.83
2022-07-31T21:41:10.442Z,35.75
2022-07-31T21:46:17.714Z,35.47
2022-07-31T21:51:22.469Z,35.72
2022-07-31T21:56:25.393Z,36.11
2022-07-31T22:01:28.298Z,35.91
2022-07-31T22:06:49.953Z,36.62
2022-07-31T22:12:01.703Z,37.39
2022-07-31T22:17:04.804Z,37.84
2022-07-31T22:22:10.335Z,38.19
2022-07-31T22:27:47.063Z,38.07
2022-07-31T22:32:53.331Z,38.61
2022-07-31T22:37:58.158Z,38.50
2022-07-31T22:43:02.329Z,38.64
2022-07-31T22:48:06.375Z,38.62
2022-07-31T22:53:10.570Z,39.36
2022-07-31T22:58:15.173Z,39.78
2022-07-31T23:03:18.127Z,40.33
2022-07-31T23:08:22.323Z,40.16
2022-07-31T23:13:25.135Z,39.45
2022-07-31T23:18:27.973Z,40.83
2022-07-31T23:23:32.150Z,41.34
2022-07-31T23:28:34.889Z,40.72
2022-07-31T23:33:37.723Z,41.72
2022-07-31T23:38:42.298Z,41.98
2022-07-31T23:43:55.223Z,42.64
2022-07-31T23:48:58.479Z,43.05
2022-07-31T23:54:05.485Z,43.21
2022-07-31T23:59:08.359Z,43.14
